createdAt,value
2022-08-02T03:18:44.712Z,100.00
2022-08-02T03:21:57.418Z,100.00
2022-08-02T03:25:15.734Z,100.00
2022-08-02T03:28:25.441Z,100.00
2022-08-02T03:31:35.725Z,100.00
2022-08-02T03:34:46.596Z,100.00
2022-08-02T03:37:59.946Z,100.00
2022-08-02T03:41:11.809Z,100.00
2022-08-02T03:44:21.553Z,100.00
2022-08-02T03:47:34.621Z,100.00
2022-08-02T03:50:47.601Z,100.00
2022-08-02T03:53:57.566Z,100.00
2022-08-02T03:57:09.792Z,100.00
2022-08-02T04:00:21.566Z,100.00
2022-08-02T04:03:33.498Z,100.00
2022-08-02T04:06:44.244Z,100.00
2022-08-02T04:09:54.606Z,100.00
2022-08-02T04:13:04.136Z,100.00
2022-08-02T04:16:28.970Z,100.00
2022-08-02T04:19:41.515Z,100.00
2022-08-02T04:23:00.668Z,100.00
2022-08-02T04:26:11.051Z,100.00
2022-08-02T04:29:20.608Z,100.00
2022-08-02T04:32:33.709Z,100.00
2022-08-02T04:35:43.889Z,100.00
2022-08-02T04:38:54.803Z,100.00
2022-08-02T04:42:04.592Z,100.00
2022-08-02T04:45:16.581Z,100.00
2022-08-02T04:48:26.665Z,100.00
2022-08-02T04:51:38.387Z,100.00
2022-08-02T04:54:53.829Z,100.00
2022-08-02T04:58:30.143Z,100.00
2022-08-02T05:58:41.587Z,100.00
2022-08-02T06:01:57.401Z,100.00
2022-08-02T06:05:12.592Z,100.00
2022-08-02T06:08:26.727Z,100.00
2022-08-02T06:11:38.866Z,100.00
2022-08-02T06:15:16.269Z,100.00
2022-08-02T06:18:29.507Z,100.00
2022-08-02T06:22:34.941Z,100.00
2022-08-02T06:25:50.061Z,100.00
2022-08-02T06:28:47.274Z,100.00
2022-08-02T06:32:01.790Z,100.00
2022-08-02T06:35:11.372Z,100.00
2022-08-02T06:38:26.141Z,99.64
2022-08-02T06:41:42.166Z,97.76
2022-08-02T06:44:58.559Z,97.50
2022-08-02T06:48:12.551Z,96.25
2022-08-02T06:51:22.523Z,94.95
2022-08-02T06:54:35.983Z,91.58
2022-08-02T06:57:45.640Z,86.73
2022-08-02T07:00:55.475Z,84.21
2022-08-02T07:04:06.507Z,82.32
2022-08-02T07:07:16.024Z,81.92
2022-08-02T07:10:25.549Z,80.42
2022-08-02T07:13:40.001Z,79.37
2022-08-02T07:16:49.573Z,77.77
2022-08-02T07:20:09.376Z,77.96
2022-08-02T07:23:21.639Z,74.83
2022-08-02T07:26:31.233Z,73.78
2022-08-02T07:29:46.089Z,73.99
2022-08-02T07:32:56.766Z,73.78
2022-08-02T07:36:16.922Z,71.49
2022-08-02T07:39:32.396Z,69.97
2022-08-02T07:42:44.387Z,66.62
2022-08-02T07:45:57.172Z,65.65
2022-08-02T07:49:10.706Z,64.89
2022-08-02T07:52:21.594Z,64.84
2022-08-02T07:55:39.860Z,65.91
2022-08-02T07:58:54.005Z,62.56
2022-08-02T08:02:03.628Z,61.59
2022-08-02T08:05:13.823Z,60.58
2022-08-02T08:08:24.578Z,59.97
2022-08-02T08:11:34.276Z,58.29
2022-08-02T08:14:46.291Z,57.90
2022-08-02T13:29:36.049Z,30.11
2022-08-02T13:32:46.681Z,30.21
2022-08-02T13:35:56.230Z,30.41
2022-08-02T13:39:06.449Z,29.87
2022-08-02T13:42:19.270Z,30.49
2022-08-02T13:45:30.162Z,30.17
2022-08-02T13:48:39.691Z,30.43
2022-08-02T13:51:49.641Z,29.43
2022-08-02T13:54:59.293Z,29.99
2022-08-02T13:58:09.560Z,30.08
2022-08-02T14:01:23.218Z,30.50
2022-08-02T14:04:33.812Z,30.56
2022-08-02T14:07:43.387Z,30.65
2022-08-02T14:10:53.145Z,29.28
2022-08-02T14:14:02.636Z,29.60
2022-08-02T14:17:13.840Z,30.01
2022-08-02T14:20:30.205Z,30.16
2022-08-02T14:23:50.079Z,29.07
2022-08-02T14:27:03.777Z,28.92
2022-08-02T14:30:13.949Z,29.21
2022-08-02T14:33:24.788Z,29.55
2022-08-02T14:36:36.744Z,30.37
2022-08-02T14:40:00.693Z,30.21
2022-08-02T14:43:10.628Z,29.60
2022-08-02T14:46:20.166Z,29.92
2022-08-02T14:49:31.031Z,29.66
2022-08-02T14:52:40.836Z,30.80
2022-08-02T14:55:51.204Z,30.07
2022-08-02T14:59:03.651Z,30.61
2022-08-02T15:02:14.282Z,30.54
2022-08-02T15:05:25.459Z,30.88
2022-08-02T15:08:35.072Z,30.48
2022-08-02T15:11:48.019Z,31.71
2022-08-02T15:15:00.075Z,31.43
2022-08-02T15:18:09.661Z,32.76
2022-08-02T15:21:41.571Z,32.30
2022-08-02T15:24:52.799Z,34.03
2022-08-02T15:28:06.610Z,33.95
2022-08-02T15:31:22.564Z,34.03
2022-08-02T15:34:43.047Z,33.85
2022-08-02T15:37:54.201Z,33.27
2022-08-02T15:41:06.874Z,33.52
2022-08-02T15:44:16.402Z,34.50
2022-08-02T15:47:26.424Z,33.88
2022-08-02T15:50:36.308Z,33.24
2022-08-02T15:53:47.166Z,34.38
2022-08-02T15:56:59.261Z,34.05
2022-08-02T16:00:18.342Z,34.17
2022-08-02T16:03:28.564Z,33.78
2022-08-02T16:06:38.105Z,35.20
2022-08-02T16:09:52.041Z,35.17
2022-08-02T16:13:16.670Z,35.47
2022-08-02T16:16:30.526Z,34.75
2022-08-02T16:19:48.204Z,35.57
2022-08-02T16:23:04.556Z,35.54
2022-08-02T16:26:21.263Z,36.18
2022-08-02T16:29:33.569Z,36.08
2022-08-02T16:32:43.275Z,36.95
2022-08-02T16:35:57.620Z,36.82
2022-08-02T16:39:07.276Z,37.71
2022-08-02T16:42:25.385Z,37.97
2022-08-02T16:45:35.359Z,38.48
2022-08-02T16:48:50.826Z,38.99
2022-08-02T16:52:00.945Z,38.29
2022-08-02T16:55:11.613Z,40.71
2022-08-02T16:58:22.827Z,43.24
2022-08-02T17:02:03.285Z,42.76
2022-08-02T17:05:02.312Z,43.73
2022-08-02T17:08:16.159Z,43.27
2022-08-02T17:11:27.021Z,42.69
2022-08-02T17:14:41.953Z,43.51
2022-08-02T17:18:06.028Z,44.94
2022-08-02T17:21:18.622Z,45.09
2022-08-02T17:24:30.597Z,44.11
2022-08-02T17:27:43.910Z,45.22
2022-08-02T17:30:55.435Z,46.23
2022-08-02T17:34:04.945Z,45.60
2022-08-02T17:37:14.947Z,46.65
2022-08-02T17:40:28.921Z,46.73
2022-08-02T17:43:41.202Z,46.72
2022-08-02T17:46:52.216Z,47.66
2022-08-02T17:50:02.377Z,48.27
2022-08-02T17:53:13.273Z,48.79
2022-08-02T17:56:26.817Z,48.72
2022-08-02T17:59:41.824Z,50.08
2022-08-02T18:02:55.418Z,50.87
2022-08-02T18:06:06.061Z,51.48
2022-08-02T18:09:20.196Z,51.75
2022-08-02T18:12:29.802Z,52.72
2022-08-02T18:15:41.849Z,52.31
2022-08-02T18:18:57.102Z,52.84
2022-08-02T18:22:14.501Z,53.69
2022-08-02T18:25:37.389Z,53.87
2022-08-02T18:28:54.227Z,53.61
2022-08-02T18:32:05.105Z,54.02
2022-08-02T18:35:25.357Z,54.71
2022-08-02T18:38:42.396Z,55.17
2022-08-02T18:41:57.970Z,55.43
2022-08-02T18:45:09.203Z,56.31
2022-08-02T18:48:32.618Z,56.90
2022-08-02T18:51:47.483Z,57.27
2022-08-02T18:54:57.815Z,56.81
2022-08-02T18:58:18.805Z,56.99
2022-08-02T19:01:34.828Z,57.85
2022-08-02T19:04:46.856Z,58.20
2022-08-02T19:08:03.458Z,58.42
2022-08-02T19:11:15.711Z,58.89
2022-08-02T19:14:28.165Z,58.85
2022-08-02T19:17:55.043Z,58.63
2022-08-02T19:21:09.699Z,59.36
2022-08-02T19:24:24.408Z,59.52
2022-08-02T19:27:36.987Z,60.36
2022-08-02T19:30:48.084Z,60.27
2022-08-02T19:34:06.010Z,59.83
2022-08-02T19:37:17.756Z,59.51
2022-08-02T19:40:31.123Z,60.18
2022-08-02T19:44:23.241Z,61.70
2022-08-02T19:47:19.327Z,62.59
2022-08-02T19:50:29.278Z,62.82
2022-08-02T19:53:47.636Z,62.31
2022-08-02T19:57:03.227Z,62.00
2022-08-02T20:00:13.290Z,61.22
2022-08-02T20:03:52.370Z,61.67
2022-08-02T20:07:02.029Z,63.75
2022-08-02T20:10:13.586Z,64.00
2022-08-02T20:13:47.165Z,64.68
2022-08-02T20:16:58.023Z,65.30
2022-08-02T20:20:19.599Z,64.58
2022-08-02T20:23:33.791Z,65.45
2022-08-02T20:26:47.578Z,65.46
2022-08-02T20:29:59.619Z,66.50
2022-08-02T20:33:20.977Z,67.23
2022-08-02T20:36:32.033Z,67.09
2022-08-02T20:39:44.772Z,67.34
2022-08-02T20:42:57.726Z,67.15
2022-08-02T20:46:11.096Z,67.19
2022-08-02T20:49:25.589Z,67.31
2022-08-02T20:52:51.094Z,67.18
2022-08-02T20:56:00.902Z,67.80
2022-08-02T20:59:15.529Z,68.44
2022-08-02T21:02:28.878Z,69.48
2022-08-02T21:05:55.081Z,70.62
2022-08-02T21:09:06.084Z,70.30
2022-08-02T21:12:15.751Z,70.17
2022-08-02T21:15:25.331Z,70.66
2022-08-02T21:18:40.994Z,71.47
2022-08-02T21:21:50.774Z,70.92
2022-08-02T21:25:00.216Z,71.47
